Terminal Aerodrome Forecast
Issued by NWS

Home | Current Version | Previous Version | Text Only | Print | Product List | Glossary On
Versions: 1 2 3 4 5 6 7 8 9 10 11 12 13 14 15 16 17
000
FTUS46 KLOX 031143
TAFSBA
TAF
KSBA 031143Z 0312/0412 VRB03KT P6SM OVC005
     FM031600 16006KT P6SM OVC008
     FM031900 25008KT P6SM SKC
     FM040300 VRB03KT P6SM SKC
     FM040700 VRB03KT 5SM HZ OVC007=

USA.gov is the U.S. government's official web portal to all federal, state and local government web resources and services.